Time;durP1;ratioP1;P1;durP2;ratioP2;P2;SDS_P1;SDS_P2;PMS_P1;PMS_P2;Temp;Humidity;BMP_temperature;BMP_pressure;BME280_temperature;BME280_humidity;BME280_pressure;Samples;Min_cycle;Max_cycle;Signal;HPM_P1;HPM_P2
2023/08/28 00:00:18;;;;;;;3.43;1.70;;;;;;;;;;4986378;28;20200;-78
2023/08/28 00:02:44;;;;;;;1.80;1.47;;;;;;;;;;4988690;28;20203;-78
2023/08/28 00:05:10;;;;;;;2.87;1.27;;;;;;;;;;5003555;28;20192;-78
2023/08/28 00:07:36;;;;;;;2.40;1.47;;;;;;;;;;5011208;28;20184;-78
2023/08/28 00:10:02;;;;;;;4.27;1.30;;;;;;;;;;4986648;28;20707;-78
2023/08/28 00:12:28;;;;;;;4.53;1.57;;;;;;;;;;4997249;28;20211;-78
2023/08/28 00:14:54;;;;;;;2.63;1.37;;;;;;;;;;4989663;28;20590;-78
2023/08/28 00:17:20;;;;;;;2.73;1.33;;;;;;;;;;4996130;28;20200;-78
2023/08/28 00:19:47;;;;;;;1.70;1.30;;;;;;;;;;4992992;28;20213;-78
2023/08/28 00:22:13;;;;;;;2.50;1.47;;;;;;;;;;4997638;28;20237;-78
2023/08/28 00:24:39;;;;;;;3.53;1.30;;;;;;;;;;5015448;28;20211;-78
2023/08/28 00:27:05;;;;;;;2.27;1.40;;;;;;;;;;4989670;28;20183;-78
2023/08/28 00:29:31;;;;;;;5.13;1.60;;;;;;;;;;4993229;28;20218;-78
2023/08/28 00:31:57;;;;;;;1.80;1.30;;;;;;;;;;4997416;28;20202;-78
2023/08/28 00:34:24;;;;;;;1.57;1.27;;;;;;;;;;4981028;28;20199;-78
2023/08/28 00:36:50;;;;;;;2.43;1.30;;;;;;;;;;4974019;28;20214;-78
2023/08/28 00:39:17;;;;;;;1.77;1.40;;;;;;;;;;4992858;28;20198;-78
2023/08/28 00:41:43;;;;;;;1.40;1.20;;;;;;;;;;4987073;28;20218;-78
2023/08/28 00:44:09;;;;;;;2.20;1.30;;;;;;;;;;4975672;28;20211;-78
2023/08/28 00:46:36;;;;;;;3.87;1.30;;;;;;;;;;4981439;28;20262;-78
2023/08/28 00:49:02;;;;;;;1.97;1.30;;;;;;;;;;4993401;28;20234;-78
2023/08/28 00:51:29;;;;;;;2.07;1.30;;;;;;;;;;5013220;28;20215;-78
2023/08/28 00:53:55;;;;;;;1.40;1.20;;;;;;;;;;4975827;28;20602;-79
2023/08/28 00:56:22;;;;;;;4.37;1.60;;;;;;;;;;4995809;28;20575;-78
2023/08/28 00:58:48;;;;;;;1.20;1.10;;;;;;;;;;4978692;28;20187;-78
2023/08/28 01:01:14;;;;;;;2.00;1.30;;;;;;;;;;4987755;28;20199;-78
2023/08/28 01:03:40;;;;;;;2.90;1.30;;;;;;;;;;4963799;28;20211;-78
2023/08/28 01:06:19;;;;;;;2.50;1.20;;;;;;;;;;4994150;28;20202;-78
2023/08/28 01:08:49;;;;;;;4.90;1.53;;;;;;;;;;4992599;28;20202;-79
2023/08/28 01:11:19;;;;;;;2.07;1.73;;;;;;;;;;4975345;28;20209;-78
2023/08/28 01:13:57;;;;;;;2.53;1.50;;;;;;;;;;4996338;28;20187;-79
2023/08/28 01:16:23;;;;;;;2.07;1.50;;;;;;;;;;4992638;28;20987;-78
2023/08/28 01:18:50;;;;;;;2.17;1.33;;;;;;;;;;4996290;28;20203;-78
2023/08/28 01:21:17;;;;;;;3.30;1.23;;;;;;;;;;4994885;28;20199;-78
2023/08/28 01:23:47;;;;;;;1.77;1.30;;;;;;;;;;5012564;28;20187;-79
2023/08/28 01:26:13;;;;;;;1.17;1.00;;;;;;;;;;4959224;28;20668;-78
2023/08/28 01:28:39;;;;;;;3.03;1.30;;;;;;;;;;4979635;28;20712;-78
2023/08/28 01:31:06;;;;;;;1.53;1.30;;;;;;;;;;4976449;28;20193;-78
2023/08/28 01:33:35;;;;;;;4.17;1.20;;;;;;;;;;4996425;28;20218;-78
2023/08/28 01:36:09;;;;;;;2.30;1.30;;;;;;;;;;4976065;28;20287;-78
2023/08/28 01:38:36;;;;;;;1.53;1.27;;;;;;;;;;4992457;28;20675;-78
2023/08/28 01:41:05;;;;;;;2.70;1.37;;;;;;;;;;4990964;28;20208;-78
2023/08/28 01:43:35;;;;;;;3.63;2.23;;;;;;;;;;4980101;28;20184;-78
2023/08/28 01:46:02;;;;;;;1.63;1.40;;;;;;;;;;4975468;28;20191;-78
2023/08/28 01:48:29;;;;;;;2.40;1.50;;;;;;;;;;4978260;28;20191;-78
2023/08/28 01:50:55;;;;;;;1.70;1.30;;;;;;;;;;4975363;28;20187;-78
2023/08/28 01:53:22;;;;;;;2.10;1.40;;;;;;;;;;5044130;23;20249;-78
2023/08/28 01:55:51;;;;;;;1.40;1.30;;;;;;;;;;5034925;28;20684;-78
2023/08/28 01:58:17;;;;;;;3.17;1.50;;;;;;;;;;5045017;28;20191;-77
2023/08/28 02:00:43;;;;;;;2.30;1.40;;;;;;;;;;5043608;28;20188;-78
2023/08/28 02:03:10;;;;;;;1.73;1.37;;;;;;;;;;5021583;28;20206;-78
2023/08/28 02:05:36;;;;;;;1.47;1.20;;;;;;;;;;5040693;28;20195;-79
2023/08/28 02:08:03;;;;;;;1.53;1.30;;;;;;;;;;5027508;28;20265;-78
2023/08/28 02:10:29;;;;;;;1.30;1.20;;;;;;;;;;5025166;28;20205;-78
2023/08/28 02:12:58;;;;;;;3.23;1.40;;;;;;;;;;5023018;28;20219;-78
2023/08/28 02:15:24;;;;;;;1.90;1.33;;;;;;;;;;5032739;28;20697;-78
2023/08/28 02:17:51;;;;;;;1.73;1.50;;;;;;;;;;5025505;28;20179;-78
2023/08/28 02:20:17;;;;;;;1.50;1.40;;;;;;;;;;5019126;28;20200;-78
2023/08/28 02:22:43;;;;;;;4.10;1.30;;;;;;;;;;5017223;28;20211;-79
2023/08/28 02:25:09;;;;;;;2.13;1.50;;;;;;;;;;5030930;28;20191;-78
2023/08/28 02:27:36;;;;;;;2.77;1.50;;;;;;;;;;5026840;28;20184;-78
2023/08/28 02:30:02;;;;;;;2.20;1.33;;;;;;;;;;5010047;28;20187;-78
2023/08/28 02:32:30;;;;;;;4.67;1.50;;;;;;;;;;5017108;28;20254;-78
2023/08/28 02:34:56;;;;;;;1.67;1.30;;;;;;;;;;5035358;28;20181;-78
2023/08/28 02:37:22;;;;;;;2.33;1.50;;;;;;;;;;5024904;28;20711;-78
2023/08/28 02:39:49;;;;;;;1.63;1.40;;;;;;;;;;5032621;28;20191;-78
2023/08/28 02:42:15;;;;;;;2.50;1.50;;;;;;;;;;5027393;28;20230;-78
2023/08/28 02:44:41;;;;;;;3.23;1.50;;;;;;;;;;5004206;28;20208;-78
2023/08/28 02:47:08;;;;;;;1.50;1.37;;;;;;;;;;5040336;28;20236;-78
2023/08/28 02:49:34;;;;;;;2.50;1.47;;;;;;;;;;5025161;28;20241;-78
2023/08/28 02:52:00;;;;;;;2.50;1.47;;;;;;;;;;5039817;28;20271;-78
2023/08/28 02:54:26;;;;;;;2.97;1.53;;;;;;;;;;5006648;28;20175;-78
2023/08/28 02:56:52;;;;;;;2.80;1.40;;;;;;;;;;5042343;28;20214;-78
2023/08/28 02:59:18;;;;;;;3.43;1.30;;;;;;;;;;5025211;28;20547;-78
2023/08/28 03:01:44;;;;;;;3.60;1.40;;;;;;;;;;5024856;28;20602;-78
2023/08/28 03:04:11;;;;;;;1.40;1.30;;;;;;;;;;5026734;28;20666;-78
2023/08/28 03:06:37;;;;;;;3.17;1.27;;;;;;;;;;5027905;28;20325;-78
2023/08/28 03:09:04;;;;;;;2.73;1.40;;;;;;;;;;4997079;28;20187;-78
2023/08/28 03:11:30;;;;;;;2.47;1.50;;;;;;;;;;5019899;28;20193;-78
2023/08/28 03:13:56;;;;;;;2.80;1.70;;;;;;;;;;5037780;28;20261;-78
2023/08/28 03:16:22;;;;;;;4.40;1.80;;;;;;;;;;5004802;28;20344;-78
2023/08/28 03:18:49;;;;;;;2.83;2.00;;;;;;;;;;5009220;28;20645;-78
2023/08/28 03:21:15;;;;;;;4.23;2.10;;;;;;;;;;5042226;28;20269;-78
2023/08/28 03:23:41;;;;;;;3.30;2.33;;;;;;;;;;5036721;28;20488;-78
2023/08/28 03:26:08;;;;;;;2.33;1.83;;;;;;;;;;5018628;28;20209;-78
2023/08/28 03:28:34;;;;;;;4.07;1.80;;;;;;;;;;5016495;28;20190;-78
2023/08/28 03:31:01;;;;;;;1.87;1.77;;;;;;;;;;5022367;28;20687;-78
2023/08/28 03:33:27;;;;;;;1.87;1.67;;;;;;;;;;5024219;28;20210;-78
2023/08/28 03:35:54;;;;;;;4.33;1.83;;;;;;;;;;5040980;28;20669;-78
2023/08/28 03:38:20;;;;;;;3.40;1.97;;;;;;;;;;5024201;28;20182;-78
2023/08/28 03:40:47;;;;;;;4.97;2.20;;;;;;;;;;5028089;28;20178;-78
2023/08/28 03:43:14;;;;;;;2.50;2.20;;;;;;;;;;5008392;28;20264;-78
2023/08/28 03:45:40;;;;;;;5.27;2.20;;;;;;;;;;5027375;28;20183;-78
2023/08/28 03:48:07;;;;;;;5.00;2.40;;;;;;;;;;5027842;28;20193;-78
2023/08/28 03:50:33;;;;;;;2.33;1.77;;;;;;;;;;5037341;28;21150;-78
2023/08/28 03:53:00;;;;;;;2.70;1.67;;;;;;;;;;5024329;28;20215;-79
2023/08/28 03:55:27;;;;;;;4.00;1.70;;;;;;;;;;5023008;28;20206;-78
2023/08/28 03:57:54;;;;;;;2.37;1.50;;;;;;;;;;5027517;28;20218;-78
2023/08/28 04:00:21;;;;;;;2.63;1.47;;;;;;;;;;5028893;28;20191;-78
2023/08/28 04:02:48;;;;;;;2.80;1.70;;;;;;;;;;4994626;28;20198;-78
2023/08/28 04:05:16;;;;;;;3.10;1.60;;;;;;;;;;5018676;28;20508;-78
2023/08/28 04:07:43;;;;;;;3.73;1.63;;;;;;;;;;5018403;28;20217;-78
2023/08/28 04:10:10;;;;;;;2.72;1.70;;;;;;;;;;5028153;28;20839;-78
2023/08/28 04:12:36;;;;;;;3.03;1.50;;;;;;;;;;5027027;28;20700;-78
2023/08/28 04:15:03;;;;;;;2.17;1.40;;;;;;;;;;5024585;28;20186;-78
2023/08/28 04:17:31;;;;;;;2.17;1.50;;;;;;;;;;5004098;28;20285;-78
2023/08/28 04:19:57;;;;;;;2.33;1.50;;;;;;;;;;5041785;28;20183;-78
2023/08/28 04:22:23;;;;;;;3.07;1.50;;;;;;;;;;5020466;28;20191;-79
2023/08/28 04:24:50;;;;;;;6.70;1.63;;;;;;;;;;5039530;28;20199;-78
2023/08/28 04:27:17;;;;;;;2.97;1.80;;;;;;;;;;5020368;28;20190;-78
2023/08/28 04:29:43;;;;;;;1.97;1.67;;;;;;;;;;5028938;28;20187;-78
2023/08/28 04:32:09;;;;;;;2.13;1.70;;;;;;;;;;5028826;28;20225;-78
2023/08/28 04:34:37;;;;;;;3.97;1.60;;;;;;;;;;5026282;28;20776;-78
2023/08/28 04:37:04;;;;;;;8.67;1.73;;;;;;;;;;5027043;28;20567;-78
2023/08/28 04:39:30;;;;;;;5.03;1.90;;;;;;;;;;5004787;28;20190;-78
2023/08/28 04:41:56;;;;;;;2.93;1.87;;;;;;;;;;5042388;28;20257;-78
2023/08/28 04:44:22;;;;;;;2.90;1.77;;;;;;;;;;5022137;28;20187;-78
2023/08/28 04:46:49;;;;;;;2.37;1.70;;;;;;;;;;5026328;28;20240;-78
2023/08/28 04:49:15;;;;;;;2.63;1.87;;;;;;;;;;5040716;28;20187;-78
2023/08/28 04:51:42;;;;;;;2.50;1.80;;;;;;;;;;5007495;28;20229;-78
2023/08/28 04:54:09;;;;;;;2.40;1.60;;;;;;;;;;5042832;28;20187;-79
2023/08/28 04:56:35;;;;;;;3.53;1.70;;;;;;;;;;5039489;28;20208;-78
2023/08/28 04:59:02;;;;;;;2.53;1.77;;;;;;;;;;5005935;28;20215;-78
2023/08/28 05:01:30;;;;;;;3.57;1.80;;;;;;;;;;5024892;28;20179;-78
2023/08/28 05:03:56;;;;;;;3.20;2.00;;;;;;;;;;5017741;28;20278;-78
2023/08/28 05:06:22;;;;;;;1.60;1.50;;;;;;;;;;5028655;28;20692;-78
2023/08/28 05:08:48;;;;;;;2.10;1.80;;;;;;;;;;5042880;28;20226;-78
2023/08/28 05:11:15;;;;;;;2.70;1.77;;;;;;;;;;5008390;28;20183;-78
2023/08/28 05:13:41;;;;;;;3.63;1.73;;;;;;;;;;5025856;28;20212;-80
2023/08/28 05:16:07;;;;;;;4.67;1.93;;;;;;;;;;5034992;28;20211;-78
2023/08/28 05:18:33;;;;;;;3.10;1.77;;;;;;;;;;5037119;28;20306;-79
2023/08/28 05:20:59;;;;;;;2.87;1.70;;;;;;;;;;5026058;28;20199;-78
2023/08/28 05:23:25;;;;;;;3.10;1.90;;;;;;;;;;5032273;28;20238;-79
2023/08/28 05:25:52;;;;;;;2.40;1.90;;;;;;;;;;5033808;28;20629;-78
2023/08/28 05:28:19;;;;;;;3.27;1.70;;;;;;;;;;5024903;28;20228;-79
2023/08/28 05:30:45;;;;;;;3.43;1.80;;;;;;;;;;5021600;28;20189;-79
2023/08/28 05:33:11;;;;;;;2.93;2.00;;;;;;;;;;5025690;28;20210;-78
2023/08/28 05:35:38;;;;;;;11.13;7.77;;;;;;;;;;5022161;28;20238;-78
2023/08/28 05:38:06;;;;;;;4.50;3.67;;;;;;;;;;5027759;28;20171;-78
2023/08/28 05:40:32;;;;;;;3.43;2.20;;;;;;;;;;5029050;28;20233;-79
2023/08/28 05:42:58;;;;;;;2.30;2.10;;;;;;;;;;5015858;28;20763;-77
2023/08/28 05:45:26;;;;;;;2.77;2.20;;;;;;;;;;5023145;28;20273;-77
2023/08/28 05:47:52;;;;;;;3.47;2.17;;;;;;;;;;5008347;28;20187;-79
2023/08/28 05:50:18;;;;;;;3.57;2.10;;;;;;;;;;5014435;28;20190;-79
2023/08/28 05:52:45;;;;;;;4.97;2.13;;;;;;;;;;5026172;28;20261;-79
2023/08/28 05:55:11;;;;;;;4.13;2.10;;;;;;;;;;4989372;28;20210;-80
2023/08/28 05:57:38;;;;;;;3.67;1.70;;;;;;;;;;4995805;28;20201;-79
2023/08/28 06:00:05;;;;;;;3.63;1.87;;;;;;;;;;4993684;28;20263;-79
2023/08/28 06:02:38;;;;;;;2.00;1.80;;;;;;;;;;5024202;28;20206;-79
2023/08/28 06:05:05;;;;;;;3.17;2.00;;;;;;;;;;5012392;28;20183;-79
2023/08/28 06:07:31;;;;;;;3.27;2.20;;;;;;;;;;5027448;28;20255;-80
2023/08/28 06:09:57;;;;;;;3.73;2.00;;;;;;;;;;5025172;28;20794;-79
2023/08/28 06:12:24;;;;;;;6.20;1.80;;;;;;;;;;5023943;28;20248;-79
2023/08/28 06:14:51;;;;;;;2.57;1.77;;;;;;;;;;5038077;28;20294;-79
2023/08/28 06:17:18;;;;;;;2.03;1.80;;;;;;;;;;5027715;28;20186;-79
2023/08/28 06:19:45;;;;;;;2.87;1.83;;;;;;;;;;5019449;28;20552;-79
2023/08/28 06:22:11;;;;;;;2.90;1.70;;;;;;;;;;5012884;28;20210;-79
2023/08/28 06:24:38;;;;;;;4.23;1.90;;;;;;;;;;5004939;28;20523;-79
2023/08/28 06:27:04;;;;;;;2.90;2.00;;;;;;;;;;4992979;28;20188;-79
2023/08/28 06:29:30;;;;;;;2.73;1.90;;;;;;;;;;5043447;28;20186;-80
2023/08/28 06:31:56;;;;;;;2.93;1.73;;;;;;;;;;5027806;28;20267;-78
2023/08/28 06:34:22;;;;;;;2.37;1.90;;;;;;;;;;5026658;28;20175;-79
2023/08/28 06:36:49;;;;;;;4.03;1.63;;;;;;;;;;5021726;28;20211;-79
2023/08/28 06:39:16;;;;;;;2.90;1.90;;;;;;;;;;5020905;28;20183;-79
2023/08/28 06:41:42;;;;;;;2.27;1.87;;;;;;;;;;5025382;28;20180;-79
2023/08/28 06:44:09;;;;;;;5.43;2.10;;;;;;;;;;5025089;28;20187;-78
2023/08/28 06:46:36;;;;;;;4.10;2.33;;;;;;;;;;5021205;28;20219;-79
2023/08/28 06:49:03;;;;;;;3.40;2.30;;;;;;;;;;5017590;28;20270;-79
2023/08/28 06:51:29;;;;;;;4.87;2.20;;;;;;;;;;5025001;28;20198;-79
2023/08/28 06:53:55;;;;;;;3.10;1.97;;;;;;;;;;5022560;28;20647;-79
2023/08/28 06:56:21;;;;;;;3.20;2.00;;;;;;;;;;5024874;28;20210;-79
2023/08/28 06:58:47;;;;;;;2.83;1.90;;;;;;;;;;5000018;28;20199;-79
2023/08/28 07:01:13;;;;;;;3.80;2.10;;;;;;;;;;5018842;28;20190;-79
2023/08/28 07:03:40;;;;;;;3.80;2.23;;;;;;;;;;5020557;28;20203;-79
2023/08/28 07:06:06;;;;;;;2.20;2.00;;;;;;;;;;5024832;28;20233;-79
2023/08/28 07:08:32;;;;;;;4.37;2.20;;;;;;;;;;5015917;28;20183;-78
2023/08/28 07:10:58;;;;;;;4.63;2.30;;;;;;;;;;5042166;28;20694;-79
2023/08/28 07:13:24;;;;;;;3.10;2.20;;;;;;;;;;5023140;28;20207;-79
2023/08/28 07:15:51;;;;;;;2.87;2.20;;;;;;;;;;5019438;28;20215;-79
2023/08/28 07:18:17;;;;;;;3.50;1.93;;;;;;;;;;5022557;28;20181;-79
2023/08/28 07:20:44;;;;;;;3.03;2.10;;;;;;;;;;5035434;28;20836;-79
2023/08/28 07:23:10;;;;;;;3.17;2.00;;;;;;;;;;5012874;28;20708;-79
2023/08/28 07:25:38;;;;;;;6.07;2.10;;;;;;;;;;5023985;28;20588;-79
2023/08/28 07:28:05;;;;;;;4.70;2.10;;;;;;;;;;5003676;28;20189;-79
2023/08/28 07:30:32;;;;;;;3.97;2.30;;;;;;;;;;5021289;28;20609;-79
2023/08/28 07:32:58;;;;;;;4.17;2.33;;;;;;;;;;5025508;28;20199;-79
2023/08/28 07:35:26;;;;;;;4.10;2.20;;;;;;;;;;5027564;28;20591;-79
2023/08/28 07:37:52;;;;;;;3.67;2.70;;;;;;;;;;5036294;28;20557;-79
2023/08/28 07:40:18;;;;;;;3.70;2.50;;;;;;;;;;5028163;28;20193;-79
2023/08/28 07:42:44;;;;;;;5.37;2.80;;;;;;;;;;5023021;28;20209;-79
2023/08/28 07:45:10;;;;;;;3.70;2.30;;;;;;;;;;5023302;28;20171;-79
2023/08/28 07:47:36;;;;;;;3.30;2.60;;;;;;;;;;5039609;28;20178;-79
2023/08/28 07:50:03;;;;;;;4.67;2.60;;;;;;;;;;5006696;28;20285;-79
2023/08/28 07:52:29;;;;;;;2.93;2.20;;;;;;;;;;5070166;22;20232;-82
2023/08/28 07:54:55;;;;;;;3.17;2.53;;;;;;;;;;5036425;28;20225;-81
2023/08/28 07:57:23;;;;;;;4.37;2.53;;;;;;;;;;5050182;28;20178;-80
2023/08/28 07:59:49;;;;;;;5.07;2.60;;;;;;;;;;5046609;28;20183;-80
2023/08/28 08:02:15;;;;;;;3.63;2.53;;;;;;;;;;5067849;28;20225;-80
2023/08/28 08:04:41;;;;;;;4.93;2.53;;;;;;;;;;5033530;28;20277;-80
2023/08/28 08:07:07;;;;;;;4.07;2.60;;;;;;;;;;5051798;28;20240;-80
2023/08/28 08:09:33;;;;;;;2.63;2.40;;;;;;;;;;5048307;28;20244;-80
2023/08/28 08:12:01;;;;;;;4.80;2.70;;;;;;;;;;5051516;28;20190;-80
2023/08/28 08:14:27;;;;;;;4.87;2.90;;;;;;;;;;5051587;28;20182;-80
2023/08/28 08:16:53;;;;;;;3.93;2.80;;;;;;;;;;5045970;28;20210;-81
2023/08/28 08:19:19;;;;;;;4.77;2.77;;;;;;;;;;5031352;28;20196;-81
2023/08/28 08:21:45;;;;;;;3.37;2.63;;;;;;;;;;5044832;28;20193;-80
2023/08/28 08:24:12;;;;;;;3.47;2.47;;;;;;;;;;5046216;28;20903;-81
2023/08/28 08:26:38;;;;;;;3.43;2.50;;;;;;;;;;5045388;28;20181;-81
2023/08/28 08:29:04;;;;;;;4.50;2.30;;;;;;;;;;5050855;28;20189;-81
2023/08/28 08:31:30;;;;;;;2.77;2.50;;;;;;;;;;5050620;28;20208;-80
2023/08/28 08:33:56;;;;;;;3.87;2.27;;;;;;;;;;5046587;28;20201;-81
2023/08/28 08:36:22;;;;;;;4.70;2.70;;;;;;;;;;5050667;28;20280;-81
2023/08/28 08:38:48;;;;;;;3.57;2.37;;;;;;;;;;5051570;28;20178;-81
2023/08/28 08:41:15;;;;;;;2.50;2.20;;;;;;;;;;5049304;28;20178;-80
2023/08/28 08:43:41;;;;;;;2.77;2.30;;;;;;;;;;5054753;28;20746;-80
2023/08/28 08:46:08;;;;;;;4.17;2.50;;;;;;;;;;5052538;28;20228;-78
2023/08/28 08:48:36;;;;;;;3.47;2.63;;;;;;;;;;5053916;28;20186;-85
2023/08/28 08:51:04;;;;;;;4.53;2.40;;;;;;;;;;5014651;28;20203;-81
2023/08/28 08:53:33;;;;;;;4.30;2.40;;;;;;;;;;5053120;28;20316;-81
2023/08/28 08:56:01;;;;;;;5.50;2.90;;;;;;;;;;5052063;28;20845;-81
2023/08/28 08:58:27;;;;;;;6.03;2.93;;;;;;;;;;5049748;28;20177;-81
2023/08/28 09:00:54;;;;;;;4.07;2.87;;;;;;;;;;5048043;28;20193;-81
2023/08/28 09:03:22;;;;;;;5.00;3.07;;;;;;;;;;5046365;28;20247;-81
2023/08/28 09:05:50;;;;;;;4.33;2.70;;;;;;;;;;5053468;28;20185;-81
2023/08/28 09:08:16;;;;;;;4.27;3.23;;;;;;;;;;5052332;28;20185;-81
2023/08/28 09:10:46;;;;;;;5.57;2.80;;;;;;;;;;5041604;28;20178;-81
2023/08/28 09:13:12;;;;;;;3.43;2.93;;;;;;;;;;5030778;28;20213;-80
2023/08/28 09:15:38;;;;;;;4.07;2.57;;;;;;;;;;5048205;28;20311;-86
2023/08/28 09:18:05;;;;;;;5.30;3.30;;;;;;;;;;5032941;28;20182;-79
2023/08/28 09:20:31;;;;;;;4.00;2.83;;;;;;;;;;5066396;28;20192;-80
2023/08/28 09:22:58;;;;;;;5.63;2.93;;;;;;;;;;5050593;28;20792;-80
2023/08/28 09:25:24;;;;;;;5.63;3.17;;;;;;;;;;5047433;28;20182;-80
2023/08/28 09:27:52;;;;;;;4.37;3.43;;;;;;;;;;5049509;28;20726;-79
2023/08/28 09:30:28;;;;;;;3.53;3.23;;;;;;;;;;5047304;28;20373;-80
2023/08/28 09:32:55;;;;;;;4.20;3.30;;;;;;;;;;5045357;28;20250;-80
2023/08/28 09:35:21;;;;;;;3.77;3.27;;;;;;;;;;5039908;28;20230;-79
2023/08/28 09:38:06;;;;;;;4.43;3.50;;;;;;;;;;5044768;28;20174;-79
2023/08/28 09:40:33;;;;;;;5.43;3.80;;;;;;;;;;5045280;28;20556;-80
2023/08/28 09:43:00;;;;;;;4.63;3.40;;;;;;;;;;5050347;28;20201;-80
2023/08/28 09:45:32;;;;;;;5.07;3.00;;;;;;;;;;5048099;28;20197;-79
2023/08/28 09:47:59;;;;;;;6.70;3.43;;;;;;;;;;5052417;28;20273;-78
2023/08/28 09:50:28;;;;;;;5.33;3.37;;;;;;;;;;5047033;28;20657;-80
2023/08/28 09:52:54;;;;;;;4.37;3.40;;;;;;;;;;5051398;28;20302;-79
2023/08/28 09:55:20;;;;;;;4.50;3.60;;;;;;;;;;5051032;28;20201;-79
2023/08/28 09:57:47;;;;;;;5.00;3.80;;;;;;;;;;5047656;28;20714;-80
2023/08/28 10:00:13;;;;;;;6.40;3.67;;;;;;;;;;5048699;28;20259;-79
2023/08/28 10:02:40;;;;;;;7.50;3.70;;;;;;;;;;5051341;28;20601;-80
2023/08/28 10:05:08;;;;;;;5.00;3.47;;;;;;;;;;5028545;28;20224;-80
2023/08/28 10:07:38;;;;;;;4.67;3.70;;;;;;;;;;5047860;28;20177;-80
2023/08/28 10:10:06;;;;;;;5.53;4.00;;;;;;;;;;5045895;28;20700;-79
2023/08/28 10:12:33;;;;;;;4.50;3.43;;;;;;;;;;5047003;28;20379;-80
2023/08/28 10:15:01;;;;;;;4.20;3.80;;;;;;;;;;5053348;28;20182;-80
2023/08/28 10:17:28;;;;;;;4.90;3.03;;;;;;;;;;5053764;28;20716;-79
2023/08/28 10:19:57;;;;;;;5.03;2.90;;;;;;;;;;5053042;28;20186;-79
2023/08/28 10:22:24;;;;;;;7.73;3.37;;;;;;;;;;5059838;28;20280;-80
2023/08/28 10:24:51;;;;;;;2.97;2.60;;;;;;;;;;5051021;28;20190;-81
2023/08/28 10:27:18;;;;;;;8.47;2.77;;;;;;;;;;5055089;28;20454;-80
2023/08/28 10:29:52;;;;;;;3.53;2.07;;;;;;;;;;5068961;28;20189;-78
2023/08/28 10:32:19;;;;;;;3.03;2.17;;;;;;;;;;5046301;28;20287;-78
2023/08/28 10:34:46;;;;;;;2.10;1.90;;;;;;;;;;5056950;28;20193;-80
2023/08/28 10:37:13;;;;;;;3.40;1.87;;;;;;;;;;5055375;28;20232;-84
2023/08/28 10:39:43;;;;;;;2.57;1.80;;;;;;;;;;5055056;28;20210;-78
2023/08/28 10:42:15;;;;;;;192.43;10.47;;;;;;;;;;5041942;28;20621;-82
2023/08/28 10:44:42;;;;;;;9.53;2.10;;;;;;;;;;5058683;28;20253;-82
2023/08/28 10:47:08;;;;;;;1.90;1.50;;;;;;;;;;5023138;28;20191;-82
2023/08/28 10:49:34;;;;;;;2.10;1.40;;;;;;;;;;5037623;28;20189;-77
2023/08/28 10:52:04;;;;;;;4.87;1.60;;;;;;;;;;5053205;28;20629;-79
2023/08/28 10:54:40;;;;;;;3.80;1.67;;;;;;;;;;5054132;28;20760;-81
2023/08/28 10:57:10;;;;;;;13.17;1.80;;;;;;;;;;5051146;28;20699;-80
2023/08/28 10:59:46;;;;;;;7.73;1.60;;;;;;;;;;5034870;28;20724;-81
2023/08/28 11:02:12;;;;;;;3.33;1.40;;;;;;;;;;5057154;28;20204;-80
2023/08/28 11:04:40;;;;;;;2.23;1.30;;;;;;;;;;5054871;28;20193;-82
2023/08/28 11:07:30;;;;;;;3.17;1.23;;;;;;;;;;5021017;28;20182;-79
2023/08/28 11:10:16;;;;;;;1.40;1.20;;;;;;;;;;5018167;28;20272;-79
2023/08/28 11:12:53;;;;;;;2.63;1.30;;;;;;;;;;5048897;28;20559;-79
2023/08/28 11:15:27;;;;;;;1.57;1.20;;;;;;;;;;5049104;28;20212;-79
2023/08/28 11:18:12;;;;;;;5.27;1.10;;;;;;;;;;5047358;28;20284;-80
2023/08/28 11:20:38;;;;;;;1.87;1.30;;;;;;;;;;5015334;28;20293;-80
2023/08/28 11:23:04;;;;;;;2.20;1.17;;;;;;;;;;5048087;28;20201;-79
2023/08/28 11:25:38;;;;;;;2.13;1.07;;;;;;;;;;5041848;28;20190;-80
2023/08/28 11:28:04;;;;;;;1.43;1.10;;;;;;;;;;5046829;28;20820;-79
2023/08/28 11:30:30;;;;;;;1.33;1.13;;;;;;;;;;5031725;28;20192;-79
2023/08/28 11:32:57;;;;;;;1.10;0.90;;;;;;;;;;5048251;28;20201;-78
2023/08/28 11:35:24;;;;;;;1.70;1.00;;;;;;;;;;5047768;28;20260;-78
2023/08/28 11:37:54;;;;;;;1.10;1.00;;;;;;;;;;5060884;28;20182;-78
2023/08/28 11:40:21;;;;;;;2.63;1.10;;;;;;;;;;5045111;28;20528;-78
2023/08/28 11:42:48;;;;;;;1.40;1.13;;;;;;;;;;5045395;28;20268;-78
2023/08/28 11:45:32;;;;;;;1.93;1.00;;;;;;;;;;5049136;28;20186;-79
2023/08/28 11:48:05;;;;;;;1.10;1.00;;;;;;;;;;5058458;28;20179;-78
2023/08/28 11:50:31;;;;;;;1.87;1.10;;;;;;;;;;5048255;28;20171;-78
2023/08/28 11:52:58;;;;;;;1.50;1.10;;;;;;;;;;5046322;28;20251;-78
2023/08/28 11:55:24;;;;;;;1.10;1.00;;;;;;;;;;5046097;28;20305;-78
2023/08/28 11:57:50;;;;;;;1.10;0.97;;;;;;;;;;5046109;28;20184;-78
2023/08/28 12:00:16;;;;;;;1.20;1.10;;;;;;;;;;5048430;28;20236;-77
2023/08/28 12:02:44;;;;;;;1.20;1.10;;;;;;;;;;5044967;28;20888;-81
2023/08/28 12:05:11;;;;;;;1.30;1.00;;;;;;;;;;5048687;28;20241;-78
2023/08/28 12:07:42;;;;;;;1.30;1.07;;;;;;;;;;5050501;28;20175;-79
2023/08/28 12:10:09;;;;;;;1.20;0.90;;;;;;;;;;5047520;28;20182;-79
2023/08/28 12:12:36;;;;;;;1.00;1.00;;;;;;;;;;5029011;28;20240;-78
2023/08/28 12:15:03;;;;;;;3.50;1.10;;;;;;;;;;5064101;28;20238;-79
2023/08/28 12:17:30;;;;;;;2.20;1.20;;;;;;;;;;5051123;28;20223;-79
2023/08/28 12:19:57;;;;;;;1.10;1.00;;;;;;;;;;5051425;28;20227;-79
2023/08/28 12:22:25;;;;;;;1.10;1.00;;;;;;;;;;5052642;28;20230;-82
2023/08/28 12:24:52;;;;;;;1.00;1.00;;;;;;;;;;5031358;28;20191;-76
2023/08/28 12:27:25;;;;;;;1.00;1.00;;;;;;;;;;5046625;28;20250;-76
2023/08/28 12:29:54;;;;;;;0.90;0.90;;;;;;;;;;5047824;28;20171;-81
2023/08/28 12:32:21;;;;;;;2.30;1.10;;;;;;;;;;5031995;28;20687;-77
2023/08/28 12:34:47;;;;;;;1.90;1.43;;;;;;;;;;5049981;28;20181;-78
2023/08/28 12:37:14;;;;;;;1.70;1.10;;;;;;;;;;5048014;28;20704;-79
2023/08/28 12:39:51;;;;;;;1.27;1.17;;;;;;;;;;5048735;28;20653;-78
2023/08/28 12:42:18;;;;;;;2.30;1.20;;;;;;;;;;5051584;28;20231;-78
2023/08/28 12:44:44;;;;;;;1.97;1.20;;;;;;;;;;5046516;28;20186;-79
2023/08/28 12:47:11;;;;;;;1.43;1.17;;;;;;;;;;5046882;28;20184;-78
2023/08/28 12:49:40;;;;;;;1.47;1.10;;;;;;;;;;5043545;28;20184;-78
2023/08/28 12:52:07;;;;;;;2.40;1.30;;;;;;;;;;5050075;28;20312;-78
2023/08/28 12:54:34;;;;;;;1.33;1.10;;;;;;;;;;5047267;28;20197;-78
2023/08/28 12:57:00;;;;;;;1.30;1.20;;;;;;;;;;5031280;28;20261;-78
2023/08/28 12:59:26;;;;;;;1.20;1.10;;;;;;;;;;5048917;28;20692;-79
2023/08/28 13:01:53;;;;;;;2.07;1.30;;;;;;;;;;5048832;28;20270;-79
2023/08/28 13:04:19;;;;;;;1.30;1.20;;;;;;;;;;5048751;28;20266;-78
2023/08/28 13:06:47;;;;;;;1.67;1.17;;;;;;;;;;5048418;28;20170;-79
2023/08/28 13:09:14;;;;;;;1.93;1.00;;;;;;;;;;5050668;28;20248;-78
2023/08/28 13:11:40;;;;;;;1.43;1.10;;;;;;;;;;5050564;28;20182;-78
2023/08/28 13:14:06;;;;;;;1.30;1.10;;;;;;;;;;5049310;28;20210;-78
2023/08/28 13:16:32;;;;;;;1.53;1.20;;;;;;;;;;5048566;28;20264;-78
2023/08/28 13:19:00;;;;;;;3.10;1.10;;;;;;;;;;5048052;28;20197;-77
2023/08/28 13:21:26;;;;;;;1.27;1.13;;;;;;;;;;5051621;28;20253;-78
2023/08/28 13:23:54;;;;;;;1.43;1.20;;;;;;;;;;5048115;28;20290;-77
2023/08/28 13:26:21;;;;;;;1.30;1.20;;;;;;;;;;5047883;28;20175;-78
2023/08/28 13:28:47;;;;;;;3.20;1.20;;;;;;;;;;5050901;28;20688;-78
2023/08/28 13:31:13;;;;;;;1.73;1.07;;;;;;;;;;5050381;28;20187;-78
2023/08/28 13:33:40;;;;;;;2.07;1.17;;;;;;;;;;5052854;28;20213;-79
2023/08/28 13:36:07;;;;;;;1.80;1.20;;;;;;;;;;5048812;28;20222;-79
2023/08/28 13:38:33;;;;;;;1.20;1.10;;;;;;;;;;5046556;28;20189;-79
2023/08/28 13:41:00;;;;;;;1.73;1.10;;;;;;;;;;5049080;28;20184;-79
2023/08/28 13:43:26;;;;;;;2.10;1.13;;;;;;;;;;5048570;28;20280;-79
2023/08/28 13:45:52;;;;;;;1.67;1.10;;;;;;;;;;5047984;28;20190;-79
2023/08/28 13:48:19;;;;;;;2.40;1.30;;;;;;;;;;5050195;28;20184;-79
2023/08/28 13:50:45;;;;;;;3.80;1.20;;;;;;;;;;5047802;28;20691;-79
2023/08/28 13:53:11;;;;;;;1.30;1.20;;;;;;;;;;5048467;28;20306;-79
2023/08/28 13:55:37;;;;;;;2.27;1.13;;;;;;;;;;5049051;28;20200;-79
2023/08/28 13:58:04;;;;;;;1.10;1.00;;;;;;;;;;5031640;28;20177;-79
2023/08/28 14:00:30;;;;;;;1.20;1.10;;;;;;;;;;5048654;28;20179;-79
2023/08/28 14:02:56;;;;;;;11.17;1.30;;;;;;;;;;5047725;28;20252;-79
2023/08/28 14:05:23;;;;;;;2.70;1.10;;;;;;;;;;5045874;28;20244;-79
2023/08/28 14:07:49;;;;;;;3.00;1.13;;;;;;;;;;5045476;28;20183;-79
2023/08/28 14:10:16;;;;;;;4.27;1.40;;;;;;;;;;5049005;28;20478;-79
2023/08/28 14:12:42;;;;;;;2.00;0.90;;;;;;;;;;5046581;28;20450;-79
2023/08/28 14:15:08;;;;;;;1.77;1.20;;;;;;;;;;5046193;28;20188;-79
2023/08/28 14:17:35;;;;;;;1.83;1.20;;;;;;;;;;5068517;22;20234;-77
2023/08/28 14:20:03;;;;;;;1.37;1.20;;;;;;;;;;5028269;28;20182;-80
2023/08/28 14:22:29;;;;;;;1.77;1.20;;;;;;;;;;5032129;28;20224;-78
2023/08/28 14:24:56;;;;;;;1.93;1.20;;;;;;;;;;5011188;28;20237;-78
2023/08/28 14:27:22;;;;;;;5.40;1.10;;;;;;;;;;5049670;28;20201;-79
2023/08/28 14:29:48;;;;;;;3.03;1.30;;;;;;;;;;5014596;28;20591;-77
2023/08/28 14:32:14;;;;;;;5.50;1.27;;;;;;;;;;5049490;28;20658;-78
2023/08/28 14:34:40;;;;;;;11.50;1.50;;;;;;;;;;5044547;28;20178;-78
2023/08/28 14:37:06;;;;;;;3.97;1.33;;;;;;;;;;5025122;28;20324;-78
2023/08/28 14:39:33;;;;;;;3.83;1.10;;;;;;;;;;5032349;28;20174;-79
2023/08/28 14:41:59;;;;;;;14.37;1.77;;;;;;;;;;5049306;28;20235;-78